Time;durP1;ratioP1;P1;durP2;ratioP2;P2;SDS_P1;SDS_P2;PMS_P1;PMS_P2;Temp;Humidity;BMP_temperature;BMP_pressure;BME280_temperature;BME280_humidity;BME280_pressure;Samples;Min_cycle;Max_cycle;Signal;HPM_P1;HPM_P2
2022/09/30 00:00:16;;;;;;;;;;;9.80;58.50;;;;;;5103278;27;19915;-86
2022/09/30 00:02:41;;;;;;;;;;;9.80;58.50;;;;;;5100944;28;19920;-91
2022/09/30 00:05:07;;;;;;;;;;;9.80;58.40;;;;;;5099284;28;20077;-87
2022/09/30 00:07:32;;;;;;;;;;;9.80;58.50;;;;;;5101473;28;19967;-90
2022/09/30 00:09:58;;;;;;;;;;;9.80;58.50;;;;;;5108416;28;20309;-87
2022/09/30 00:12:24;;;;;;;;;;;9.80;58.60;;;;;;5104363;28;20370;-85
2022/09/30 00:14:49;;;;;;;;;;;9.70;58.50;;;;;;5096622;28;19952;-91
2022/09/30 00:17:14;;;;;;;;;;;9.70;58.50;;;;;;5100282;28;19923;-89
2022/09/30 00:19:40;;;;;;;;;;;9.80;58.40;;;;;;5104003;28;20039;-89
2022/09/30 00:22:06;;;;;;;;;;;9.70;58.20;;;;;;5106404;28;19931;-90
2022/09/30 00:24:31;;;;;;;;;;;9.70;58.20;;;;;;5097329;28;19997;-90
2022/09/30 00:26:57;;;;;;;;;;;9.60;58.10;;;;;;5094937;28;19964;-86
2022/09/30 00:29:22;;;;;;;;;;;9.60;58.10;;;;;;5098793;28;20298;-89
2022/09/30 00:31:48;;;;;;;;;;;9.60;58.20;;;;;;5102910;28;20040;-89
2022/09/30 00:34:14;;;;;;;;;;;9.50;58.10;;;;;;5091472;28;19912;-85
2022/09/30 00:36:44;;;;;;;;;;;9.40;58.10;;;;;;5100747;28;20353;-91
2022/09/30 00:39:14;;;;;;;;;;;9.40;58.10;;;;;;5095876;28;19912;-85
2022/09/30 00:41:40;;;;;;;;;;;9.30;58.10;;;;;;5101900;28;19916;-86
2022/09/30 00:44:25;;;;;;;;;;;9.30;58.20;;;;;;5094866;28;19928;-84
2022/09/30 00:46:50;;;;;;;;;;;9.30;58.30;;;;;;5096053;28;19942;-85
2022/09/30 00:49:19;;;;;;;;;;;9.30;58.40;;;;;;5098496;28;19912;-89
2022/09/30 00:51:47;;;;;;;;;;;9.30;58.50;;;;;;5102411;28;20433;-86
2022/09/30 00:54:15;;;;;;;;;;;9.30;58.70;;;;;;5105313;28;19919;-86
2022/09/30 00:56:43;;;;;;;;;;;9.30;58.90;;;;;;5114498;27;20283;-88
2022/09/30 00:59:32;;;;;;;;;;;9.40;58.90;;;;;;5100204;28;20315;-86
2022/09/30 01:01:58;;;;;;;;;;;9.40;58.90;;;;;;5100331;27;19916;-90
2022/09/30 01:04:24;;;;;;;;;;;9.40;58.70;;;;;;5103911;28;19973;-85
2022/09/30 01:06:50;;;;;;;;;;;9.40;58.50;;;;;;5103291;28;19916;-86
2022/09/30 01:09:16;;;;;;;;;;;9.30;58.40;;;;;;5097272;28;19918;-86
2022/09/30 01:11:42;;;;;;;;;;;9.30;58.40;;;;;;5105767;28;19919;-86
2022/09/30 01:14:10;;;;;;;;;;;9.30;58.50;;;;;;5097006;28;19931;-86
2022/09/30 01:16:44;;;;;;;;;;;9.30;58.40;;;;;;5099144;28;20377;-87
2022/09/30 01:19:23;;;;;;;;;;;9.30;58.40;;;;;;5093880;28;20007;-88
2022/09/30 01:21:48;;;;;;;;;;;9.30;58.40;;;;;;5102392;28;19938;-85
2022/09/30 01:24:17;;;;;;;;;;;9.30;58.40;;;;;;5101366;28;19920;-86
2022/09/30 01:27:05;;;;;;;;;;;9.20;58.30;;;;;;5104074;28;20332;-89
2022/09/30 01:29:49;;;;;;;;;;;9.20;58.30;;;;;;5116660;27;19912;-89
2022/09/30 01:32:33;;;;;;;;;;;9.20;58.30;;;;;;5094350;28;20645;-90
2022/09/30 01:35:05;;;;;;;;;;;9.10;58.30;;;;;;5104345;28;19977;-85
2022/09/30 01:37:51;;;;;;;;;;;9.00;58.40;;;;;;5099811;28;19916;-89
2022/09/30 01:40:35;;;;;;;;;;;9.00;58.20;;;;;;5096960;28;19912;-85
2022/09/30 01:43:06;;;;;;;;;;;9.00;58.30;;;;;;5097634;28;19923;-89
2022/09/30 01:45:47;;;;;;;;;;;8.90;58.30;;;;;;5099418;28;20395;-89
2022/09/30 01:48:16;;;;;;;;;;;8.90;58.20;;;;;;5105004;28;20079;-90
2022/09/30 01:50:48;;;;;;;;;;;8.80;58.20;;;;;;5104617;28;20425;-85
2022/09/30 01:53:26;;;;;;;;;;;8.80;58.20;;;;;;5102011;28;19920;-85
2022/09/30 01:55:54;;;;;;;;;;;8.80;58.30;;;;;;5098953;28;19912;-90
2022/09/30 01:58:25;;;;;;;;;;;8.80;58.50;;;;;;5096413;28;20013;-89
2022/09/30 02:00:54;;;;;;;;;;;8.80;58.50;;;;;;5102951;28;20302;-88
2022/09/30 02:03:26;;;;;;;;;;;8.80;58.50;;;;;;5090760;28;20961;-86
2022/09/30 02:05:56;;;;;;;;;;;8.80;58.40;;;;;;5105929;28;19947;-90
2022/09/30 02:08:40;;;;;;;;;;;8.70;58.30;;;;;;5097133;28;19924;-87
2022/09/30 02:11:25;;;;;;;;;;;8.70;58.40;;;;;;5111114;28;19912;-89
2022/09/30 02:13:57;;;;;;;;;;;8.70;58.60;;;;;;5097515;28;19976;-90
2022/09/30 02:16:24;;;;;;;;;;;8.80;58.90;;;;;;5106004;28;19998;-86
2022/09/30 02:18:52;;;;;;;;;;;8.70;59.10;;;;;;5098699;28;19912;-89
2022/09/30 02:21:23;;;;;;;;;;;8.80;59.10;;;;;;5099575;28;19928;-89
2022/09/30 02:23:51;;;;;;;;;;;8.80;59.00;;;;;;5104553;28;20039;-89
2022/09/30 02:26:35;;;;;;;;;;;;;;;;;;;;;
2022/09/30 02:29:09;;;;;;;;;;;8.70;58.60;;;;;;5114670;22;20015;-90
2022/09/30 02:31:37;;;;;;;;;;;8.70;58.60;;;;;;5029679;28;19913;-89
2022/09/30 02:34:05;;;;;;;;;;;8.70;58.70;;;;;;5031692;28;19917;-85
2022/09/30 02:36:33;;;;;;;;;;;8.60;58.60;;;;;;5014551;28;19913;-89
2022/09/30 02:39:01;;;;;;;;;;;8.60;58.60;;;;;;5033603;28;19917;-86
2022/09/30 02:41:29;;;;;;;;;;;8.60;58.60;;;;;;5030587;28;19917;-90
2022/09/30 02:43:54;;;;;;;;;;;8.60;58.60;;;;;;5030589;28;19983;-89
2022/09/30 02:46:20;;;;;;;;;;;8.50;58.60;;;;;;5029915;28;19929;-86
2022/09/30 02:48:49;;;;;;;;;;;8.50;58.60;;;;;;5014867;28;19921;-88
2022/09/30 02:51:14;;;;;;;;;;;8.60;58.70;;;;;;5012947;28;20315;-89
2022/09/30 02:53:48;;;;;;;;;;;8.50;58.80;;;;;;5030817;28;20008;-85
2022/09/30 02:56:26;;;;;;;;;;;8.60;58.80;;;;;;5029459;28;19913;-86
2022/09/30 02:58:52;;;;;;;;;;;8.50;58.90;;;;;;5014026;28;20545;-87
2022/09/30 03:01:18;;;;;;;;;;;8.50;58.90;;;;;;5029363;28;19919;-86
2022/09/30 03:03:46;;;;;;;;;;;8.50;58.90;;;;;;5015835;28;19925;-85
2022/09/30 03:06:12;;;;;;;;;;;8.50;58.90;;;;;;5024591;28;19913;-86
2022/09/30 03:08:37;;;;;;;;;;;8.50;58.80;;;;;;5031410;28;20382;-86
2022/09/30 03:11:04;;;;;;;;;;;8.50;58.90;;;;;;5013990;28;19962;-89
2022/09/30 03:13:48;;;;;;;;;;;8.40;59.00;;;;;;5029894;28;19917;-86
2022/09/30 03:16:40;;;;;;;;;;;8.50;58.90;;;;;;5031242;28;19947;-89
2022/09/30 03:19:08;;;;;;;;;;;8.40;58.80;;;;;;5009665;28;19968;-84
2022/09/30 03:21:37;;;;;;;;;;;8.40;58.80;;;;;;5030230;28;19913;-90
2022/09/30 03:24:02;;;;;;;;;;;8.40;58.80;;;;;;5012499;28;19926;-85
2022/09/30 03:26:34;;;;;;;;;;;8.30;58.80;;;;;;5029280;28;19913;-89
2022/09/30 03:29:30;;;;;;;;;;;8.30;58.80;;;;;;5025908;28;19925;-89
2022/09/30 03:32:06;;;;;;;;;;;8.30;58.80;;;;;;5013185;28;19917;-89
2022/09/30 03:34:36;;;;;;;;;;;8.20;58.80;;;;;;5029794;28;20008;-85
2022/09/30 03:37:24;;;;;;;;;;;8.20;58.80;;;;;;5013064;28;19913;-89
2022/09/30 03:39:56;;;;;;;;;;;8.20;59.00;;;;;;5028179;28;19932;-88
2022/09/30 03:42:28;;;;;;;;;;;8.20;59.20;;;;;;5012318;28;19943;-87
2022/09/30 03:45:03;;;;;;;;;;;8.30;59.20;;;;;;5014008;28;20016;-89
2022/09/30 03:47:31;;;;;;;;;;;8.30;59.20;;;;;;5029887;28;20024;-86
2022/09/30 03:49:59;;;;;;;;;;;8.20;59.10;;;;;;5013700;28;19928;-89
2022/09/30 03:52:25;;;;;;;;;;;8.20;58.90;;;;;;5028449;28;19917;-90
2022/09/30 03:54:52;;;;;;;;;;;8.20;58.80;;;;;;5013246;28;19929;-88
2022/09/30 03:57:17;;;;;;;;;;;8.20;58.70;;;;;;5011955;28;19913;-90
2022/09/30 03:59:43;;;;;;;;;;;8.20;58.70;;;;;;5013005;28;19925;-85
2022/09/30 04:02:12;;;;;;;;;;;8.10;58.70;;;;;;5011839;28;19917;-89
2022/09/30 04:04:40;;;;;;;;;;;8.10;58.60;;;;;;5012473;28;20617;-85
2022/09/30 04:07:07;;;;;;;;;;;8.10;58.60;;;;;;5028846;28;20017;-89
2022/09/30 04:09:33;;;;;;;;;;;8.10;58.80;;;;;;5028104;28;20486;-87
2022/09/30 04:11:58;;;;;;;;;;;8.10;59.00;;;;;;5012715;28;20055;-86
2022/09/30 04:14:24;;;;;;;;;;;8.10;59.20;;;;;;5028784;28;19948;-89
2022/09/30 04:16:49;;;;;;;;;;;8.20;59.30;;;;;;5013299;28;19920;-89
2022/09/30 04:19:15;;;;;;;;;;;8.20;59.30;;;;;;5027066;28;19921;-89
2022/09/30 04:21:40;;;;;;;;;;;8.20;59.20;;;;;;5011791;28;20006;-85
2022/09/30 04:24:06;;;;;;;;;;;8.20;59.00;;;;;;5011064;28;19932;-84
2022/09/30 04:26:31;;;;;;;;;;;8.10;58.90;;;;;;5027686;28;19924;-85
2022/09/30 04:28:57;;;;;;;;;;;8.10;58.90;;;;;;5031228;28;20323;-86
2022/09/30 04:31:23;;;;;;;;;;;8.10;58.80;;;;;;5010997;28;19923;-85
2022/09/30 04:33:49;;;;;;;;;;;8.00;58.70;;;;;;5012644;28;19917;-90
2022/09/30 04:36:15;;;;;;;;;;;8.00;58.70;;;;;;5027828;28;20336;-90
2022/09/30 04:38:40;;;;;;;;;;;8.00;58.70;;;;;;5012510;28;19971;-89
2022/09/30 04:41:06;;;;;;;;;;;8.00;58.70;;;;;;5021580;28;20420;-85
2022/09/30 04:43:33;;;;;;;;;;;8.00;58.80;;;;;;5008938;28;20388;-91
2022/09/30 04:45:59;;;;;;;;;;;7.90;58.80;;;;;;5009337;28;19913;-85
2022/09/30 04:48:24;;;;;;;;;;;7.90;58.70;;;;;;5011684;28;19932;-85
2022/09/30 04:50:49;;;;;;;;;;;7.80;58.60;;;;;;5012029;28;19928;-90
2022/09/30 04:53:18;;;;;;;;;;;7.80;58.60;;;;;;5030480;28;20364;-86
2022/09/30 04:55:44;;;;;;;;;;;7.80;58.70;;;;;;5014032;28;19958;-89
2022/09/30 04:58:10;;;;;;;;;;;7.80;58.80;;;;;;5031286;28;19921;-89
2022/09/30 05:00:36;;;;;;;;;;;7.80;58.80;;;;;;5034088;28;19913;-87
2022/09/30 05:03:02;;;;;;;;;;;7.70;58.80;;;;;;5033291;28;19924;-88
2022/09/30 05:05:27;;;;;;;;;;;7.70;58.90;;;;;;5033257;28;19909;-89
2022/09/30 05:07:57;;;;;;;;;;;7.70;59.00;;;;;;5051146;28;20330;-90
2022/09/30 05:10:23;;;;;;;;;;;7.70;59.10;;;;;;5032106;28;19917;-87
2022/09/30 05:12:51;;;;;;;;;;;7.80;59.20;;;;;;5014170;28;20399;-91
2022/09/30 05:15:16;;;;;;;;;;;7.80;59.20;;;;;;5013217;28;19925;-88
2022/09/30 05:17:42;;;;;;;;;;;7.80;59.20;;;;;;5031352;28;19913;-89
2022/09/30 05:20:09;;;;;;;;;;;7.80;59.30;;;;;;5013194;28;20217;-85
2022/09/30 05:22:35;;;;;;;;;;;7.80;59.20;;;;;;5011758;28;20008;-85
2022/09/30 05:25:02;;;;;;;;;;;7.80;59.40;;;;;;5030264;28;20015;-86
2022/09/30 05:27:28;;;;;;;;;;;7.80;59.60;;;;;;5007009;28;19914;-90
2022/09/30 05:29:54;;;;;;;;;;;7.80;59.80;;;;;;4992987;28;19968;-89
2022/09/30 05:32:20;;;;;;;;;;;7.80;60.00;;;;;;4997179;28;19913;-85
2022/09/30 05:34:46;;;;;;;;;;;7.90;60.10;;;;;;5002841;28;19921;-89
2022/09/30 05:37:11;;;;;;;;;;;7.90;60.40;;;;;;5006360;28;19909;-90
2022/09/30 05:39:37;;;;;;;;;;;8.00;60.70;;;;;;5025469;28;19917;-89
2022/09/30 05:42:02;;;;;;;;;;;8.10;61.00;;;;;;5023364;28;19924;-89
2022/09/30 05:44:28;;;;;;;;;;;8.20;61.40;;;;;;5040324;28;19969;-90
2022/09/30 05:46:53;;;;;;;;;;;8.40;61.80;;;;;;5032642;28;19996;-86
2022/09/30 05:49:19;;;;;;;;;;;8.60;62.20;;;;;;5027982;28;19964;-85
2022/09/30 05:51:44;;;;;;;;;;;8.80;62.50;;;;;;5009582;28;20268;-88
2022/09/30 05:54:10;;;;;;;;;;;9.00;62.60;;;;;;5027368;28;20359;-88
2022/09/30 05:56:37;;;;;;;;;;;9.30;62.80;;;;;;5028041;28;20391;-89
2022/09/30 05:59:06;;;;;;;;;;;9.50;63.00;;;;;;5027434;28;20372;-90
2022/09/30 06:01:32;;;;;;;;;;;9.80;63.20;;;;;;5019578;28;20004;-90
2022/09/30 06:03:57;;;;;;;;;;;10.10;63.40;;;;;;5012258;28;19987;-88
2022/09/30 06:06:23;;;;;;;;;;;10.40;63.60;;;;;;5027765;28;19913;-87
2022/09/30 06:08:48;;;;;;;;;;;10.70;63.90;;;;;;5026976;28;19922;-85
2022/09/30 06:11:15;;;;;;;;;;;11.00;64.30;;;;;;5026717;28;19921;-89
2022/09/30 06:13:41;;;;;;;;;;;11.30;64.90;;;;;;5009206;28;19928;-86
2022/09/30 06:16:07;;;;;;;;;;;11.70;65.20;;;;;;5008723;28;20004;-85
2022/09/30 06:18:32;;;;;;;;;;;12.10;65.70;;;;;;5026683;28;19921;-88
2022/09/30 06:20:59;;;;;;;;;;;12.50;66.00;;;;;;5011014;28;20024;-89
2022/09/30 06:23:25;;;;;;;;;;;12.90;66.20;;;;;;5027096;28;19925;-85
2022/09/30 06:25:54;;;;;;;;;;;13.40;66.50;;;;;;5026817;28;19982;-90
2022/09/30 06:28:19;;;;;;;;;;;13.80;66.70;;;;;;5031535;28;19925;-89
2022/09/30 06:30:45;;;;;;;;;;;14.20;66.60;;;;;;5009029;28;19928;-88
2022/09/30 06:33:12;;;;;;;;;;;14.60;66.60;;;;;;5027685;28;19913;-86
2022/09/30 06:35:40;;;;;;;;;;;15.00;66.30;;;;;;5027449;28;20243;-88
2022/09/30 06:38:06;;;;;;;;;;;15.30;66.30;;;;;;5026910;28;20054;-90
2022/09/30 06:40:31;;;;;;;;;;;15.70;66.20;;;;;;5008700;28;19956;-89
2022/09/30 06:42:58;;;;;;;;;;;16.00;66.20;;;;;;5027072;28;19917;-86
2022/09/30 06:45:24;;;;;;;;;;;16.30;66.40;;;;;;5013582;28;20291;-86
2022/09/30 06:47:50;;;;;;;;;;;16.70;67.00;;;;;;5035585;28;19932;-90
2022/09/30 06:50:16;;;;;;;;;;;17.10;67.10;;;;;;5030029;28;19969;-90
2022/09/30 06:52:42;;;;;;;;;;;17.40;66.80;;;;;;5046699;28;19999;-89
2022/09/30 06:55:08;;;;;;;;;;;17.80;66.30;;;;;;5029995;28;20008;-85
2022/09/30 06:57:34;;;;;;;;;;;18.00;65.40;;;;;;5028849;28;19967;-90
2022/09/30 07:00:00;;;;;;;;;;;18.30;66.10;;;;;;5031584;28;20422;-85
2022/09/30 07:02:27;;;;;;;;;;;18.60;66.30;;;;;;5050283;28;19931;-91
2022/09/30 07:04:53;;;;;;;;;;;18.90;65.30;;;;;;5031908;28;19927;-86
2022/09/30 07:07:20;;;;;;;;;;;19.20;65.80;;;;;;5051482;28;19917;-89
2022/09/30 07:09:46;;;;;;;;;;;19.40;65.00;;;;;;5039029;28;19939;-86
2022/09/30 07:12:12;;;;;;;;;;;19.70;63.50;;;;;;5051376;28;20391;-87
2022/09/30 07:14:37;;;;;;;;;;;19.80;63.50;;;;;;5023206;28;20396;-86
2022/09/30 07:17:04;;;;;;;;;;;20.10;63.80;;;;;;5022927;28;20428;-86
2022/09/30 07:19:30;;;;;;;;;;;20.30;63.80;;;;;;5019397;28;19921;-87
2022/09/30 07:22:26;;;;;;;;;;;20.70;64.30;;;;;;5037695;28;20324;-85
2022/09/30 07:24:42;;;;;;;;;;;21.00;64.40;;;;;;5028943;28;20360;-85
2022/09/30 07:27:07;;;;;;;;;;;21.40;65.00;;;;;;5011262;28;20288;-86
2022/09/30 07:29:33;;;;;;;;;;;21.70;65.00;;;;;;5008691;28;20649;-87
2022/09/30 07:31:58;;;;;;;;;;;22.10;64.90;;;;;;5012664;28;19917;-86
2022/09/30 07:34:23;;;;;;;;;;;22.50;64.60;;;;;;5026049;28;19921;-87
2022/09/30 07:36:49;;;;;;;;;;;22.80;64.60;;;;;;5026469;28;19913;-86
2022/09/30 07:39:14;;;;;;;;;;;23.10;64.70;;;;;;5015999;28;20051;-86
2022/09/30 07:41:40;;;;;;;;;;;23.50;64.00;;;;;;5033514;28;20437;-87
2022/09/30 07:44:08;;;;;;;;;;;23.80;64.60;;;;;;5029476;28;19933;-91
2022/09/30 07:46:37;;;;;;;;;;;24.20;64.80;;;;;;5025893;28;19996;-90
2022/09/30 07:49:04;;;;;;;;;;;24.50;64.70;;;;;;4998219;28;20012;-87
2022/09/30 07:51:31;;;;;;;;;;;24.90;64.40;;;;;;5019963;28;19959;-91
2022/09/30 07:53:58;;;;;;;;;;;25.30;64.10;;;;;;5048989;28;19920;-88
2022/09/30 07:56:24;;;;;;;;;;;25.60;63.70;;;;;;5024986;28;19913;-88
2022/09/30 07:58:58;;;;;;;;;;;26.00;63.40;;;;;;5023038;28;19921;-87
2022/09/30 08:01:24;;;;;;;;;;;26.20;62.70;;;;;;5018725;28;20431;-90
2022/09/30 08:03:52;;;;;;;;;;;26.50;61.70;;;;;;5029167;28;20006;-90
2022/09/30 08:06:18;;;;;;;;;;;26.80;61.60;;;;;;4999572;28;19956;-89
2022/09/30 08:08:44;;;;;;;;;;;27.10;61.60;;;;;;5009489;28;20000;-90
2022/09/30 08:11:10;;;;;;;;;;;27.30;62.90;;;;;;5026647;28;20509;-86
2022/09/30 08:13:36;;;;;;;;;;;27.70;63.60;;;;;;5011446;28;19932;-91
2022/09/30 08:16:01;;;;;;;;;;;28.20;63.40;;;;;;5010717;28;19913;-87
2022/09/30 08:18:27;;;;;;;;;;;28.50;62.60;;;;;;5010483;28;20012;-89
2022/09/30 08:20:53;;;;;;;;;;;28.80;62.60;;;;;;5019982;28;19999;-85
2022/09/30 08:23:19;;;;;;;;;;;29.10;62.40;;;;;;5004644;28;20029;-86
2022/09/30 08:25:45;;;;;;;;;;;29.30;59.80;;;;;;5015034;28;20352;-89
2022/09/30 08:28:11;;;;;;;;;;;29.40;58.50;;;;;;5032442;28;19980;-89
2022/09/30 08:30:37;;;;;;;;;;;29.50;59.20;;;;;;5026263;28;20256;-89
2022/09/30 08:33:03;;;;;;;;;;;29.70;59.70;;;;;;5007668;28;19980;-86
2022/09/30 08:35:28;;;;;;;;;;;29.90;59.20;;;;;;5028463;28;20024;-86
2022/09/30 08:37:54;;;;;;;;;;;30.10;59.20;;;;;;5029100;28;20004;-86
2022/09/30 08:40:25;;;;;;;;;;;30.30;58.60;;;;;;5026766;28;19917;-90
2022/09/30 08:42:50;;;;;;;;;;;30.50;58.60;;;;;;5010641;28;19917;-86
2022/09/30 08:45:19;;;;;;;;;;;30.60;55.80;;;;;;5031314;28;19916;-89
2022/09/30 08:48:01;;;;;;;;;;;30.50;54.10;;;;;;5010803;28;19917;-89
2022/09/30 08:50:27;;;;;;;;;;;30.40;52.40;;;;;;5021012;28;19974;-89
2022/09/30 08:52:56;;;;;;;;;;;30.40;54.20;;;;;;5013090;28;19913;-86
2022/09/30 08:55:37;;;;;;;;;;;30.40;50.80;;;;;;5009199;28;19917;-89
2022/09/30 08:58:03;;;;;;;;;;;30.30;48.70;;;;;;5009242;28;19925;-86
2022/09/30 09:00:30;;;;;;;;;;;30.30;48.80;;;;;;5016353;28;19917;-90
2022/09/30 09:02:59;;;;;;;;;;;30.30;49.90;;;;;;5009759;28;19926;-85
2022/09/30 09:05:45;;;;;;;;;;;30.30;48.80;;;;;;5028024;28;20017;-90
2022/09/30 09:08:23;;;;;;;;;;;30.30;50.60;;;;;;5009889;28;19916;-90
2022/09/30 09:10:58;;;;;;;;;;;30.30;47.10;;;;;;5007467;28;20300;-85
2022/09/30 09:13:24;;;;;;;;;;;30.20;45.40;;;;;;5009971;28;19921;-87
2022/09/30 09:16:02;;;;;;;;;;;30.30;46.60;;;;;;5012323;28;19917;-90
2022/09/30 09:18:34;;;;;;;;;;;30.40;44.80;;;;;;5010389;28;19917;-89
2022/09/30 09:21:11;;;;;;;;;;;30.40;44.90;;;;;;5019408;28;19925;-90
2022/09/30 09:23:37;;;;;;;;;;;30.60;46.40;;;;;;5018649;28;19937;-89
2022/09/30 09:26:03;;;;;;;;;;;30.90;47.50;;;;;;5012607;28;20304;-88
2022/09/30 09:28:48;;;;;;;;;;;31.10;44.10;;;;;;5028071;28;19917;-86
2022/09/30 09:31:16;;;;;;;;;;;31.20;39.40;;;;;;5008983;28;20434;-86
2022/09/30 09:33:42;;;;;;;;;;;31.00;37.10;;;;;;5009285;28;20434;-85
2022/09/30 09:36:07;;;;;;;;;;;31.00;36.70;;;;;;5006939;28;19921;-91
2022/09/30 09:38:54;;;;;;;;;;;31.10;37.00;;;;;;5009117;28;19927;-89
2022/09/30 09:41:28;;;;;;;;;;;31.10;35.80;;;;;;5022109;28;19917;-89
2022/09/30 09:44:05;;;;;;;;;;;31.00;34.70;;;;;;5025527;28;20484;-88
2022/09/30 09:46:43;;;;;;;;;;;31.00;35.70;;;;;;5014319;28;19959;-90
2022/09/30 09:49:22;;;;;;;;;;;31.00;34.50;;;;;;5002384;28;20491;-87
2022/09/30 09:52:07;;;;;;;;;;;31.00;35.90;;;;;;5016726;28;19913;-90
2022/09/30 09:54:40;;;;;;;;;;;31.30;35.80;;;;;;5023551;28;20325;-89
2022/09/30 09:57:08;;;;;;;;;;;31.30;34.20;;;;;;5002640;28;19928;-89
2022/09/30 09:59:33;;;;;;;;;;;31.20;33.00;;;;;;5019169;28;20611;-86
2022/09/30 10:01:59;;;;;;;;;;;31.20;33.50;;;;;;5024733;28;19921;-88
2022/09/30 10:04:26;;;;;;;;;;;31.20;31.90;;;;;;5020738;28;19987;-91
2022/09/30 10:06:53;;;;;;;;;;;31.00;30.30;;;;;;5011382;28;20272;-92
2022/09/30 10:09:23;;;;;;;;;;;30.80;29.80;;;;;;5021600;28;20048;-91
2022/09/30 10:11:49;;;;;;;;;;;30.80;30.70;;;;;;5009764;28;19917;-91
2022/09/30 10:14:20;;;;;;;;;;;30.90;30.90;;;;;;5010889;28;19997;-88
2022/09/30 10:16:46;;;;;;;;;;;31.00;32.00;;;;;;5008920;28;19999;-87
2022/09/30 10:19:22;;;;;;;;;;;31.40;32.10;;;;;;5004459;28;20035;-87
2022/09/30 10:21:47;;;;;;;;;;;31.50;31.20;;;;;;5008710;28;20044;-87
2022/09/30 10:24:19;;;;;;;;;;;31.70;30.50;;;;;;5026109;28;19956;-90
2022/09/30 10:26:45;;;;;;;;;;;31.80;31.10;;;;;;5022904;28;19960;-89
2022/09/30 10:29:25;;;;;;;;;;;32.20;32.40;;;;;;5024275;28;19964;-86
2022/09/30 10:31:51;;;;;;;;;;;32.40;30.40;;;;;;5002625;28;19923;-90
2022/09/30 10:34:24;;;;;;;;;;;32.60;30.60;;;;;;5004529;28;20443;-89
2022/09/30 10:36:50;;;;;;;;;;;32.80;30.40;;;;;;5023421;28;19921;-89
2022/09/30 10:39:22;;;;;;;;;;;33.00;30.10;;;;;;5021963;28;19925;-87
2022/09/30 10:41:47;;;;;;;;;;;33.20;29.50;;;;;;5031809;28;19921;-91
2022/09/30 10:44:15;;;;;;;;;;;33.10;27.20;;;;;;5009445;28;19925;-87
2022/09/30 10:46:43;;;;;;;;;;;33.10;27.30;;;;;;5012747;28;19948;-86
2022/09/30 10:49:20;;;;;;;;;;;33.10;27.90;;;;;;5028156;28;20360;-86
2022/09/30 10:51:46;;;;;;;;;;;33.20;28.10;;;;;;5022048;28;20386;-90
2022/09/30 10:54:32;;;;;;;;;;;33.30;28.40;;;;;;5028298;28;20016;-86
2022/09/30 10:57:01;;;;;;;;;;;33.50;28.20;;;;;;5026136;28;19927;-89
2022/09/30 10:59:30;;;;;;;;;;;33.70;27.00;;;;;;5011779;28;19931;-89
2022/09/30 11:01:59;;;;;;;;;;;33.70;26.80;;;;;;5028352;28;19925;-87
2022/09/30 11:04:36;;;;;;;;;;;33.80;26.40;;;;;;5032002;28;19928;-90
2022/09/30 11:07:21;;;;;;;;;;;33.80;25.90;;;;;;5007759;28;19976;-90
2022/09/30 11:09:50;;;;;;;;;;;33.70;25.90;;;;;;5012972;28;19924;-88
2022/09/30 11:12:21;;;;;;;;;;;33.70;26.10;;;;;;5029638;28;20291;-87
2022/09/30 11:14:54;;;;;;;;;;;33.70;25.90;;;;;;5027582;28;19921;-86
2022/09/30 11:17:28;;;;;;;;;;;33.70;25.70;;;;;;5009756;28;20047;-89
2022/09/30 11:20:07;;;;;;;;;;;33.70;26.20;;;;;;5029617;28;19917;-90
2022/09/30 11:22:58;;;;;;;;;;;33.80;26.50;;;;;;5025230;28;19928;-90
2022/09/30 11:25:26;;;;;;;;;;;34.00;26.30;;;;;;5026692;28;19940;-90
2022/09/30 11:27:52;;;;;;;;;;;34.20;26.10;;;;;;5010427;28;19917;-87
2022/09/30 11:30:19;;;;;;;;;;;34.30;26.00;;;;;;5027585;28;19978;-87
2022/09/30 11:32:48;;;;;;;;;;;34.30;25.90;;;;;;5027158;28;19924;-90
2022/09/30 11:35:27;;;;;;;;;;;34.30;24.50;;;;;;5025993;28;19917;-90
2022/09/30 11:38:00;;;;;;;;;;;33.70;23.60;;;;;;5014566;28;20408;-86
2022/09/30 11:40:28;;;;;;;;;;;33.30;23.90;;;;;;5030883;28;19921;-91
2022/09/30 11:43:06;;;;;;;;;;;32.60;23.30;;;;;;5029616;28;19917;-85
2022/09/30 11:45:32;;;;;;;;;;;32.10;24.10;;;;;;5025988;28;20375;-85
2022/09/30 11:48:13;;;;;;;;;;;31.80;24.60;;;;;;5023422;28;19917;-86
2022/09/30 11:50:45;;;;;;;;;;;31.70;25.20;;;;;;5024777;28;19921;-88
2022/09/30 11:53:23;;;;;;;;;;;31.70;25.70;;;;;;5028624;28;19917;-90
2022/09/30 11:55:59;;;;;;;;;;;31.20;26.00;;;;;;5015713;28;19921;-90
2022/09/30 11:58:27;;;;;;;;;;;30.70;26.70;;;;;;5026149;28;19928;-90
2022/09/30 12:01:09;;;;;;;;;;;30.20;27.10;;;;;;5007943;28;19956;-89
2022/09/30 12:03:37;;;;;;;;;;;29.80;27.50;;;;;;5025281;28;19925;-86
2022/09/30 12:06:08;;;;;;;;;;;29.40;28.40;;;;;;5009416;28;19970;-90
2022/09/30 12:08:36;;;;;;;;;;;29.20;28.70;;;;;;5026631;28;19966;-87
2022/09/30 12:11:11;;;;;;;;;;;29.30;28.90;;;;;;5008167;28;19956;-91
2022/09/30 12:13:59;;;;;;;;;;;29.70;28.60;;;;;;5026234;28;19916;-88
2022/09/30 12:16:29;;;;;;;;;;;29.80;28.60;;;;;;5026745;28;19920;-90
2022/09/30 12:19:13;;;;;;;;;;;29.80;28.50;;;;;;5017716;28;20628;-88
2022/09/30 12:21:42;;;;;;;;;;;30.10;28.40;;;;;;5027767;28;20620;-91
2022/09/30 12:24:20;;;;;;;;;;;30.20;28.00;;;;;;5027264;28;19921;-90
2022/09/30 12:26:49;;;;;;;;;;;29.80;28.20;;;;;;5009470;28;19932;-87
2022/09/30 12:32:09;;;;;;;;;;;29.90;28.20;;;;;;5027494;28;19928;-90
2022/09/30 12:34:41;;;;;;;;;;;30.30;27.80;;;;;;5026091;28;19917;-86
2022/09/30 12:37:25;;;;;;;;;;;30.70;27.10;;;;;;5024538;28;19928;-87
2022/09/30 12:40:01;;;;;;;;;;;31.10;26.80;;;;;;5021368;28;19917;-91
2022/09/30 12:42:32;;;;;;;;;;;31.40;26.30;;;;;;5026817;28;19921;-86
2022/09/30 12:45:16;;;;;;;;;;;31.80;25.70;;;;;;5008226;28;19994;-87
2022/09/30 12:47:55;;;;;;;;;;;31.90;25.10;;;;;;5023444;28;19924;-87
2022/09/30 12:50:23;;;;;;;;;;;31.90;25.00;;;;;;5025586;28;20242;-90
2022/09/30 12:52:49;;;;;;;;;;;31.90;24.70;;;;;;5026111;28;20020;-90
2022/09/30 12:55:30;;;;;;;;;;;31.80;23.70;;;;;;5028138;28;19921;-86
2022/09/30 12:57:56;;;;;;;;;;;31.40;23.30;;;;;;5024553;28;19928;-88
2022/09/30 13:00:23;;;;;;;;;;;31.00;23.10;;;;;;5027322;28;20036;-90
2022/09/30 13:02:54;;;;;;;;;;;30.50;23.30;;;;;;5010235;28;19917;-87
2022/09/30 13:05:26;;;;;;;;;;;30.00;24.00;;;;;;5031898;28;19929;-90
2022/09/30 13:08:04;;;;;;;;;;;29.40;24.80;;;;;;5011501;28;19917;-91
2022/09/30 13:10:30;;;;;;;;;;;28.70;25.10;;;;;;5028440;28;19956;-87
2022/09/30 13:13:11;;;;;;;;;;;28.00;25.70;;;;;;5009564;28;19923;-86
2022/09/30 13:15:46;;;;;;;;;;;27.30;26.20;;;;;;5027960;28;19928;-87
2022/09/30 13:18:20;;;;;;;;;;;26.80;27.00;;;;;;5025355;28;19924;-90
2022/09/30 13:20:53;;;;;;;;;;;26.50;27.40;;;;;;5010706;28;19944;-86
2022/09/30 13:23:38;;;;;;;;;;;26.20;27.80;;;;;;5004822;28;20047;-90
2022/09/30 13:26:21;;;;;;;;;;;25.80;28.20;;;;;;5009746;28;20411;-86
2022/09/30 13:28:46;;;;;;;;;;;25.40;28.70;;;;;;5026300;28;19917;-87
2022/09/30 13:31:14;;;;;;;;;;;25.20;29.20;;;;;;5008187;28;19927;-92
2022/09/30 13:33:41;;;;;;;;;;;25.10;29.30;;;;;;5020071;28;20279;-93
2022/09/30 13:36:15;;;;;;;;;;;24.90;29.40;;;;;;5009392;28;20018;-86
2022/09/30 13:38:41;;;;;;;;;;;24.60;29.60;;;;;;5019115;28;20295;-91
2022/09/30 13:41:06;;;;;;;;;;;24.50;30.10;;;;;;5007298;28;19925;-92
2022/09/30 13:43:32;;;;;;;;;;;24.30;30.10;;;;;;5008448;28;19957;-91
2022/09/30 13:45:58;;;;;;;;;;;24.30;30.50;;;;;;5025112;28;19956;-90
2022/09/30 13:48:32;;;;;;;;;;;24.30;30.90;;;;;;5025600;28;19917;-91
2022/09/30 13:50:59;;;;;;;;;;;24.30;31.00;;;;;;5025497;28;20004;-87
2022/09/30 13:53:38;;;;;;;;;;;24.30;31.00;;;;;;5007423;28;20195;-90
2022/09/30 13:56:06;;;;;;;;;;;24.20;31.10;;;;;;5015221;28;19941;-89
2022/09/30 13:58:43;;;;;;;;;;;24.20;31.30;;;;;;5026151;28;19956;-92
2022/09/30 14:01:17;;;;;;;;;;;24.20;31.50;;;;;;5032190;28;19921;-88
2022/09/30 14:04:02;;;;;;;;;;;24.10;31.70;;;;;;5029441;28;20629;-91
2022/09/30 14:06:34;;;;;;;;;;;24.10;31.30;;;;;;5029248;28;19921;-88
2022/09/30 14:09:06;;;;;;;;;;;23.90;31.20;;;;;;5032977;28;20563;-87
2022/09/30 14:11:38;;;;;;;;;;;23.70;31.10;;;;;;5034932;28;19921;-90
2022/09/30 14:14:15;;;;;;;;;;;23.60;31.20;;;;;;5034693;28;19913;-88
2022/09/30 14:16:59;;;;;;;;;;;23.50;31.30;;;;;;5032256;28;19921;-87
2022/09/30 14:19:51;;;;;;;;;;;23.40;31.10;;;;;;5009855;28;19952;-86
2022/09/30 14:22:18;;;;;;;;;;;23.20;31.30;;;;;;5017933;28;20005;-90
2022/09/30 14:24:43;;;;;;;;;;;23.10;31.70;;;;;;5025331;28;19925;-91
2022/09/30 14:27:15;;;;;;;;;;;23.00;31.70;;;;;;5033998;28;19944;-91
2022/09/30 14:29:59;;;;;;;;;;;23.00;31.80;;;;;;5019285;28;19971;-86
2022/09/30 14:32:27;;;;;;;;;;;22.90;31.70;;;;;;5018423;28;19928;-91
2022/09/30 14:34:53;;;;;;;;;;;22.90;32.00;;;;;;5011162;28;19921;-87
2022/09/30 14:37:27;;;;;;;;;;;22.90;32.20;;;;;;5012851;28;19995;-87
2022/09/30 14:39:53;;;;;;;;;;;22.80;32.30;;;;;;5028968;28;19928;-87
2022/09/30 14:42:24;;;;;;;;;;;22.80;32.60;;;;;;5013878;28;19921;-90